Time;durP1;ratioP1;P1;durP2;ratioP2;P2;SDS_P1;SDS_P2;PMS_P1;PMS_P2;Temp;Humidity;BMP_temperature;BMP_pressure;BME280_temperature;BME280_humidity;BME280_pressure;Samples;Min_cycle;Max_cycle;Signal;HPM_P1;HPM_P2
2021/10/02 00:31:02;;;;;;;8.38;5.72;;;;;;;12.40;97.54;101067.06;2066447;28;20026;-66
2021/10/02 00:31:37;;;;;;;7.72;6.20;;;;;;;12.41;98.09;101068.75;2066210;28;20109;-65
2021/10/02 00:35:17;;;;;;;7.00;6.30;;;;;;;12.48;97.88;101075.38;2066244;28;20045;-65
2021/10/02 00:36:35;;;;;;;8.10;7.30;;;;;;;12.48;98.46;101075.38;2066109;28;20512;-67
2021/10/02 00:45:01;;;;;;;8.68;6.97;;;;;;;12.52;97.64;101061.22;2066134;28;20026;-64
2021/10/02 00:46:02;;;;;;;9.18;6.82;;;;;;;12.52;97.96;101061.22;2066079;28;20562;-65
2021/10/02 00:47:04;;;;;;;8.15;7.00;;;;;;;12.49;98.14;101058.78;2066049;28;20039;-65
2021/10/02 00:48:04;;;;;;;;;;;;;;;12.48;98.29;101060.53;2066704;28;20039;-66
2021/10/02 00:49:04;;;;;;;7.78;6.97;;;;;;;12.45;97.94;101060.69;2066128;28;20000;-65
2021/10/02 00:50:06;;;;;;;8.20;7.03;;;;;;;12.41;97.75;101053.03;2066054;28;20029;-66
2021/10/02 00:51:07;;;;;;;;;;;;;;;12.39;98.38;101053.13;2066587;28;20027;-65
2021/10/02 00:52:10;;;;;;;7.60;6.80;;;;;;;12.34;97.94;101058.56;2065394;28;19933;-65
2021/10/02 00:53:10;;;;;;;8.35;7.45;;;;;;;12.32;97.84;101054.34;2057087;28;20146;-66
2021/10/02 00:54:11;;;;;;;9.33;7.07;;;;;;;12.31;98.43;101052.63;2065263;28;20524;-67
2021/10/02 00:55:11;;;;;;;10.93;7.35;;;;;;;12.32;98.52;101049.94;2066055;28;20022;-67
2021/10/02 00:56:12;;;;;;;9.30;7.17;;;;;;;12.30;98.03;101051.78;2066114;28;20023;-65
2021/10/02 00:57:13;;;;;;;9.73;7.00;;;;;;;12.29;98.82;101049.25;2066089;28;20467;-64
2021/10/02 00:58:13;;;;;;;10.48;8.13;;;;;;;12.25;98.75;101053.75;2065929;28;20062;-65
2021/10/02 00:59:13;;;;;;;9.40;6.67;;;;;;;12.20;98.79;101047.88;2065922;28;20412;-66
2021/10/02 01:00:14;;;;;;;11.43;7.50;;;;;;;12.19;98.84;101054.03;2066043;28;20029;-66
2021/10/02 01:01:19;;;;;;;8.53;7.40;;;;;;;12.16;98.96;101059.41;2066081;28;20030;-65
2021/10/02 01:02:29;;;;;;;17.25;7.57;;;;;;;12.13;98.57;101052.56;2065859;28;20034;-65
2021/10/02 01:03:52;;;;;;;10.07;7.22;;;;;;;12.12;98.74;101053.50;2065865;28;20084;-66
2021/10/02 01:05:14;;;;;;;9.70;7.50;;;;;;;12.05;98.68;101052.84;2065863;28;20025;-66
2021/10/02 01:06:44;;;;;;;14.50;6.97;;;;;;;12.04;99.02;101048.56;2065770;28;20034;-66
2021/10/02 01:08:09;;;;;;;10.05;6.85;;;;;;;12.08;98.94;101044.91;2065887;28;20532;-66
2021/10/02 01:09:27;;;;;;;10.35;7.75;;;;;;;12.13;99.15;101049.09;2065827;28;20042;-66
2021/10/02 01:10:37;;;;;;;8.52;7.60;;;;;;;12.12;99.42;101047.41;2065873;28;20014;-66
2021/10/02 01:11:55;;;;;;;9.68;7.47;;;;;;;12.12;99.11;101043.03;2065872;28;20030;-66
2021/10/02 01:13:19;;;;;;;10.20;7.78;;;;;;;12.10;99.61;101037.84;2065728;28;20030;-65
2021/10/02 01:14:37;;;;;;;12.18;7.03;;;;;;;12.06;99.14;101027.59;2065907;28;20042;-66
2021/10/02 01:15:48;;;;;;;9.93;7.72;;;;;;;12.06;99.12;101032.81;2065209;28;20026;-66
2021/10/02 01:16:55;;;;;;;12.82;7.82;;;;;;;12.06;99.27;101038.91;2065395;28;20407;-65
2021/10/02 01:18:01;;;;;;;10.45;7.72;;;;;;;12.10;99.31;101035.25;2065900;28;20030;-67
2021/10/02 01:19:04;;;;;;;8.68;7.45;;;;;;;12.16;99.61;101038.47;2065877;28;20077;-65
2021/10/02 01:20:08;;;;;;;9.82;7.40;;;;;;;12.17;99.21;101040.16;2065975;28;20049;-65
2021/10/02 01:21:34;;;;;;;10.77;8.50;;;;;;;12.18;99.80;101031.44;2065764;28;20053;-64
2021/10/02 01:23:28;;;;;;;9.23;7.70;;;;;;;12.17;99.03;101041.03;2065853;28;20026;-65
2021/10/02 01:25:07;;;;;;;10.75;7.38;;;;;;;12.17;99.35;101040.16;2048805;28;20051;-65
2021/10/02 01:26:27;;;;;;;8.95;6.93;;;;;;;12.11;99.46;101030.84;2045948;29;20023;-65
2021/10/02 01:27:47;;;;;;;10.23;6.78;;;;;;;12.04;98.77;101030.25;2051406;28;20023;-66
2021/10/02 01:28:54;;;;;;;8.15;7.35;;;;;;;12.03;99.41;101028.56;2056826;28;20508;-65
2021/10/02 01:29:55;;;;;;;8.75;7.45;;;;;;;11.99;99.17;101029.63;2061526;28;20100;-65
2021/10/02 01:31:17;;;;;;;12.13;7.93;;;;;;;11.98;99.68;101026.13;2065792;28;20108;-65
2021/10/02 01:32:28;;;;;;;10.15;7.85;;;;;;;12.00;99.40;101028.69;2065537;28;20030;-65
2021/10/02 01:33:42;;;;;;;10.77;8.00;;;;;;;11.96;99.15;101027.13;2064946;28;20030;-65
2021/10/02 01:35:08;;;;;;;10.88;7.10;;;;;;;11.94;99.51;101023.75;2065306;28;20022;-66
2021/10/02 01:38:00;;;;;;;10.40;7.50;;;;;;;11.91;99.45;101023.88;2065713;28;20467;-65
2021/10/02 01:47:23;;;;;;;12.20;7.30;;;;;;;11.92;100.00;101029.06;2065807;28;20042;-65
2021/10/02 01:48:24;;;;;;;12.25;7.93;;;;;;;11.95;99.49;101025.44;2065661;28;20118;-64
2021/10/02 01:49:26;;;;;;;10.35;7.85;;;;;;;11.95;100.00;101017.59;2065621;28;20034;-65
2021/10/02 01:50:34;;;;;;;8.38;7.50;;;;;;;11.96;99.82;101020.16;2065588;28;20018;-64
2021/10/02 01:51:36;;;;;;;11.55;9.00;;;;;;;11.96;100.00;101028.00;2065476;28;20080;-65
2021/10/02 01:52:42;;;;;;;10.52;8.27;;;;;;;12.00;100.00;101018.22;2065649;28;20464;-65
2021/10/02 01:53:44;;;;;;;13.88;8.70;;;;;;;12.01;99.87;101019.91;2064808;28;20015;-64
2021/10/02 01:54:47;;;;;;;13.15;8.75;;;;;;;12.03;100.00;101015.47;2057145;28;20049;-64
2021/10/02 01:55:49;;;;;;;11.48;8.82;;;;;;;12.06;100.00;101012.75;2065000;28;20022;-64
2021/10/02 01:56:50;;;;;;;12.27;8.30;;;;;;;12.10;99.89;101018.69;2065569;28;20026;-64
2021/10/02 01:57:58;;;;;;;9.40;7.50;;;;;;;12.13;99.70;101015.94;2065617;28;20361;-66
2021/10/02 01:59:00;;;;;;;10.93;8.73;;;;;;;12.15;99.57;101016.69;2064685;28;20042;-64
2021/10/02 02:00:02;;;;;;;17.27;8.60;;;;;;;12.17;99.96;101008.78;2064887;28;20149;-65
2021/10/02 02:01:04;;;;;;;13.02;8.43;;;;;;;12.20;99.98;101013.88;2064866;28;20478;-64
2021/10/02 02:02:06;;;;;;;11.65;8.27;;;;;;;12.19;99.53;101010.44;2064997;28;20042;-64
2021/10/02 02:03:09;;;;;;;11.20;7.82;;;;;;;12.19;99.64;101006.94;2065643;28;20029;-65
2021/10/02 02:04:11;;;;;;;9.48;7.82;;;;;;;12.20;99.53;101003.41;2065517;28;20037;-64
2021/10/02 02:05:12;;;;;;;14.23;8.98;;;;;;;12.22;99.51;101006.81;2065199;28;20065;-64
2021/10/02 02:06:13;;;;;;;11.88;9.93;;;;;;;12.24;99.37;101007.56;2065559;28;20033;-64
2021/10/02 02:07:15;;;;;;;12.90;8.38;;;;;;;12.25;99.43;101008.44;2065531;28;20054;-64
2021/10/02 02:08:19;;;;;;;12.48;8.13;;;;;;;12.25;99.42;101001.41;2065614;28;20109;-65
2021/10/02 02:09:21;;;;;;;12.40;9.23;;;;;;;12.26;98.93;101003.13;2064878;28;20026;-64
2021/10/02 02:10:23;;;;;;;13.50;8.68;;;;;;;12.27;98.96;101007.44;2064930;28;20030;-64
2021/10/02 02:11:26;;;;;;;13.60;8.43;;;;;;;12.26;99.07;101008.38;2064986;28;20391;-64
2021/10/02 02:12:33;;;;;;;13.57;8.77;;;;;;;12.27;98.73;101004.81;2065515;28;20026;-64
2021/10/02 02:13:37;;;;;;;10.02;8.82;;;;;;;12.28;98.97;101003.91;2065553;28;20109;-64
2021/10/02 02:14:40;;;;;;;14.05;9.02;;;;;;;12.28;99.00;101001.28;2064938;28;20028;-64
2021/10/02 02:15:43;;;;;;;10.30;9.00;;;;;;;12.29;98.54;100989.91;2064824;28;20018;-64
2021/10/02 02:16:45;;;;;;;11.38;8.25;;;;;;;12.29;98.75;100987.28;2064867;28;20399;-64
2021/10/02 02:17:50;;;;;;;13.55;9.25;;;;;;;12.28;98.82;101001.28;2064890;28;20077;-65
2021/10/02 02:18:51;;;;;;;11.45;8.80;;;;;;;12.29;98.68;100995.16;2065532;28;20570;-63
2021/10/02 02:19:56;;;;;;;10.82;8.70;;;;;;;12.30;98.89;100988.97;2065562;28;20038;-65
2021/10/02 02:21:02;;;;;;;10.10;8.30;;;;;;;12.30;98.77;100994.22;2065478;28;20062;-65
2021/10/02 02:22:03;;;;;;;11.52;8.63;;;;;;;12.31;99.06;100990.66;2065559;28;20046;-64
2021/10/02 02:23:05;;;;;;;10.88;8.95;;;;;;;12.33;98.46;100993.22;2065557;28;20066;-63
2021/10/02 02:24:05;;;;;;;;;;;;;;;12.34;98.51;100990.53;2065949;28;20050;-64
2021/10/02 02:25:06;;;;;;;11.15;7.60;;;;;;;12.33;98.89;100988.84;2065565;28;19917;-64
2021/10/02 02:26:08;;;;;;;17.48;9.10;;;;;;;12.33;98.74;100978.38;2065598;28;20026;-64
2021/10/02 02:27:09;;;;;;;15.25;8.57;;;;;;;12.33;98.84;100977.53;2065541;28;20058;-64
2021/10/02 02:28:09;;;;;;;14.40;9.98;;;;;;;12.33;99.10;100983.63;2065532;28;20033;-64
2021/10/02 02:29:09;;;;;;;12.33;8.57;;;;;;;12.33;98.72;100983.63;2065530;28;20025;-64
2021/10/02 02:30:10;;;;;;;11.23;8.97;;;;;;;12.32;98.69;100981.06;2065443;28;20037;-65
2021/10/02 02:31:11;;;;;;;12.02;8.88;;;;;;;12.33;99.23;100977.53;2065520;28;20023;-64
2021/10/02 02:32:11;;;;;;;12.23;10.50;;;;;;;12.34;98.79;100976.59;2064821;28;20054;-63
2021/10/02 02:33:15;;;;;;;10.70;8.57;;;;;;;12.33;98.85;100981.00;2064861;28;20329;-64
2021/10/02 02:34:16;;;;;;;12.38;8.30;;;;;;;12.31;98.44;100974.97;2065508;28;20038;-65
2021/10/02 02:35:20;;;;;;;;;;;;;;;12.32;98.36;100981.06;2065894;28;20665;-65
2021/10/02 02:36:22;;;;;;;10.57;7.68;;;;;;;12.31;98.73;100985.44;2065640;28;19944;-65
2021/10/02 02:37:22;;;;;;;12.52;9.23;;;;;;;12.30;99.09;100983.75;2065461;28;20069;-65
2021/10/02 02:38:22;;;;;;;12.13;8.70;;;;;;;12.29;98.45;100971.59;2065357;28;20547;-65
2021/10/02 02:39:24;;;;;;;11.53;9.50;;;;;;;12.29;99.29;100976.81;2065462;28;20026;-65
2021/10/02 02:40:25;;;;;;;10.73;8.07;;;;;;;12.26;98.68;100966.50;2065467;28;20027;-63
2021/10/02 02:41:25;;;;;;;11.55;9.27;;;;;;;12.27;98.56;100967.34;2065414;28;20021;-65
2021/10/02 02:42:25;;;;;;;13.23;8.33;;;;;;;12.25;99.16;100967.41;2065496;28;20022;-64
2021/10/02 02:43:32;;;;;;;14.43;9.50;;;;;;;12.25;99.02;100963.97;2065543;28;20014;-66
2021/10/02 02:44:32;;;;;;;11.68;8.43;;;;;;;12.23;99.10;100970.13;2065470;28;20026;-65
2021/10/02 02:45:33;;;;;;;11.52;8.20;;;;;;;12.23;99.25;100971.88;2065550;28;20074;-64
2021/10/02 02:46:36;;;;;;;9.23;8.17;;;;;;;12.21;99.09;100968.47;2065475;28;20046;-66
2021/10/02 02:47:43;;;;;;;12.25;8.10;;;;;;;12.19;98.94;100970.31;2065407;28;20289;-65
2021/10/02 02:48:55;;;;;;;14.02;7.80;;;;;;;12.18;98.77;100968.63;2064716;28;20380;-64
2021/10/02 02:50:04;;;;;;;;;;;;;;;12.18;99.32;100964.22;2065443;28;20057;-66
2021/10/02 02:51:13;;;;;;;10.02;7.40;;;;;;;12.18;98.67;100968.63;2064867;28;20008;-64
2021/10/02 02:52:21;;;;;;;8.65;7.22;;;;;;;12.17;99.36;100978.25;2064948;28;20022;-65
2021/10/02 02:53:48;;;;;;;9.85;6.90;;;;;;;12.16;99.15;100971.31;2065407;28;20036;-65
2021/10/02 02:55:07;;;;;;;10.88;7.55;;;;;;;12.17;98.94;100977.38;2065464;28;20377;-64
2021/10/02 02:56:14;;;;;;;11.70;8.38;;;;;;;12.18;99.15;100976.47;2065387;28;20035;-64
2021/10/02 02:57:17;;;;;;;11.07;7.78;;;;;;;12.18;98.90;100966.03;2064793;28;20026;-63
2021/10/02 02:58:19;;;;;;;10.18;7.63;;;;;;;12.18;98.84;100966.84;2064864;28;20026;-65
2021/10/02 02:59:31;;;;;;;11.32;8.93;;;;;;;12.19;99.24;100965.09;2065153;28;20046;-65
2021/10/02 03:00:36;;;;;;;13.80;8.13;;;;;;;12.19;98.98;100962.47;2064646;28;20018;-64
2021/10/02 03:01:39;;;;;;;10.82;8.05;;;;;;;12.20;99.00;100966.78;2064899;28;20072;-65
2021/10/02 03:03:04;;;;;;;14.40;8.65;;;;;;;12.20;98.70;100958.94;2064716;28;20501;-64
2021/10/02 03:04:04;;;;;;;9.27;8.07;;;;;;;12.18;99.10;100963.41;2059794;28;20046;-64
2021/10/02 03:05:06;;;;;;;14.25;10.00;;;;;;;12.18;98.55;100963.41;2064827;28;20027;-65
2021/10/02 03:06:10;;;;;;;9.48;7.18;;;;;;;12.18;98.87;100953.78;2065322;28;20030;-64
2021/10/02 03:07:13;;;;;;;11.30;8.50;;;;;;;12.18;98.60;100963.41;2065429;28;20030;-65
2021/10/02 03:08:17;;;;;;;9.48;8.68;;;;;;;12.17;99.17;100956.44;2065279;28;20026;-64
2021/10/02 03:09:18;;;;;;;11.23;8.57;;;;;;;12.15;98.49;100961.75;2065353;28;20026;-66
2021/10/02 03:10:18;;;;;;;;;;;;;;;12.14;98.80;100962.69;2065939;28;20026;-65
2021/10/02 03:11:21;;;;;;;10.45;7.85;;;;;;;12.12;99.00;100968.91;2065349;28;19916;-64
2021/10/02 03:12:31;;;;;;;10.90;9.07;;;;;;;12.07;99.11;100964.75;2064703;28;20061;-65
2021/10/02 03:13:35;;;;;;;10.17;8.50;;;;;;;12.04;99.03;100958.78;2064734;28;20033;-65
2021/10/02 03:14:36;;;;;;;12.75;7.93;;;;;;;12.00;98.75;100960.69;2065341;28;20502;-64
2021/10/02 03:15:39;;;;;;;10.10;7.88;;;;;;;11.99;98.45;100956.38;2065355;28;20077;-65
2021/10/02 03:16:40;;;;;;;10.73;8.32;;;;;;;11.95;98.81;100950.44;2065745;28;20057;-64
2021/10/02 03:17:42;;;;;;;;;;;;;;;11.93;99.21;100948.81;2067291;28;20030;-64
2021/10/02 03:18:46;;;;;;;11.43;7.90;;;;;;;11.89;98.77;100953.34;2066929;28;19916;-64
2021/10/02 03:19:47;;;;;;;10.63;8.80;;;;;;;11.88;98.88;100950.81;2066786;28;20034;-64
2021/10/02 03:20:50;;;;;;;9.75;8.77;;;;;;;11.87;99.29;100954.34;2066782;28;20062;-65
2021/10/02 03:21:52;;;;;;;11.07;8.02;;;;;;;11.88;99.01;100961.25;2066612;28;20034;-65
2021/10/02 03:22:54;;;;;;;10.35;8.88;;;;;;;11.88;99.23;100966.50;2066104;28;20122;-64
2021/10/02 03:23:56;;;;;;;11.45;9.40;;;;;;;11.90;98.96;100969.91;2066231;28;20036;-64
2021/10/02 03:24:57;;;;;;;14.35;9.23;;;;;;;11.90;99.48;100972.50;2066096;28;20061;-65
2021/10/02 03:25:57;;;;;;;;;;;;;;;11.90;99.53;100968.13;2066698;28;20105;-65
2021/10/02 03:27:02;;;;;;;12.27;8.65;;;;;;;11.90;99.13;100970.72;2066814;28;19920;-65
2021/10/02 03:28:03;;;;;;;10.30;9.25;;;;;;;11.91;99.08;100974.19;2066710;28;20029;-64
2021/10/02 03:29:04;;;;;;;11.23;9.90;;;;;;;11.92;99.62;100974.13;2066640;28;20037;-64
2021/10/02 03:30:06;;;;;;;9.47;8.57;;;;;;;11.92;99.55;100973.28;2066757;28;20061;-64
2021/10/02 03:31:07;;;;;;;9.30;7.43;;;;;;;11.92;99.23;100975.88;2066842;28;20089;-64
2021/10/02 03:32:09;;;;;;;12.80;9.20;;;;;;;11.92;98.99;100961.06;2066061;28;20026;-65
2021/10/02 03:33:11;;;;;;;10.23;9.25;;;;;;;11.93;99.39;100967.13;2065989;28;20312;-64
2021/10/02 03:34:12;;;;;;;10.02;8.75;;;;;;;11.93;98.91;100967.97;2066196;28;20037;-65
2021/10/02 03:35:12;;;;;;;13.93;8.13;;;;;;;11.94;99.36;100971.44;2066729;28;20057;-65
2021/10/02 03:36:14;;;;;;;10.10;8.70;;;;;;;11.95;99.60;100967.91;2066730;28;20360;-64
2021/10/02 03:37:14;;;;;;;11.60;9.50;;;;;;;11.94;99.05;100966.22;2066488;28;20277;-66
2021/10/02 03:38:15;;;;;;;12.93;9.30;;;;;;;11.95;98.69;100967.91;2066501;28;20339;-63
2021/10/02 03:39:16;;;;;;;;;;;;;;;11.94;98.82;100967.03;2067119;28;20153;-64
2021/10/02 03:40:18;;;;;;;9.23;8.25;;;;;;;11.91;99.25;100964.56;2066702;28;19914;-65
2021/10/02 03:41:18;;;;;;;11.90;9.18;;;;;;;11.88;99.41;100969.97;2066039;28;20101;-63
2021/10/02 03:42:22;;;;;;;13.02;9.70;;;;;;;11.84;98.70;100961.41;2057902;28;20131;-64
2021/10/02 03:43:23;;;;;;;11.60;10.27;;;;;;;11.84;98.89;100971.84;2065721;28;20022;-63
2021/10/02 03:44:23;;;;;;;13.93;10.07;;;;;;;11.80;99.18;100969.47;2065992;28;20038;-64
2021/10/02 03:45:27;;;;;;;10.43;9.30;;;;;;;11.77;99.38;100973.03;2066598;28;20080;-64
2021/10/02 03:46:28;;;;;;;10.77;9.32;;;;;;;11.77;99.34;100970.44;2066702;28;20026;-64
2021/10/02 03:47:28;;;;;;;16.73;9.60;;;;;;;11.74;99.28;100974.97;2066612;28;20037;-65
2021/10/02 03:48:29;;;;;;;15.40;10.53;;;;;;;11.70;99.01;100971.63;2066583;28;20285;-64
2021/10/02 03:49:29;;;;;;;10.88;9.77;;;;;;;11.67;99.31;100969.16;2066477;28;20571;-65
2021/10/02 03:50:30;;;;;;;16.07;9.63;;;;;;;11.64;99.02;100964.06;2066703;28;20089;-66
2021/10/02 03:51:31;;;;;;;13.10;10.52;;;;;;;11.62;98.97;100971.97;2066604;28;20113;-65
2021/10/02 03:52:31;;;;;;;14.67;9.13;;;;;;;11.61;99.29;100964.22;2066597;28;20439;-66
2021/10/02 03:53:31;;;;;;;12.93;10.47;;;;;;;11.56;99.20;100967.88;2066514;28;20022;-65
2021/10/02 03:54:32;;;;;;;11.90;10.00;;;;;;;11.52;99.30;100968.94;2066546;28;20309;-67
2021/10/02 03:55:32;;;;;;;12.55;10.55;;;;;;;11.53;99.61;100972.41;2066544;28;20101;-65
2021/10/02 03:56:32;;;;;;;13.80;9.97;;;;;;;11.53;99.83;100972.41;2065855;28;20061;-67
2021/10/02 03:57:33;;;;;;;16.73;10.57;;;;;;;11.54;99.28;100971.47;2057808;28;20025;-66
2021/10/02 03:58:33;;;;;;;12.13;10.05;;;;;;;11.53;99.60;100968.00;2065892;28;20026;-65
2021/10/02 03:59:34;;;;;;;12.60;9.77;;;;;;;11.54;99.88;100969.72;2066374;28;20080;-66
2021/10/02 04:00:34;;;;;;;14.57;10.43;;;;;;;11.55;99.93;100966.19;2066535;28;20030;-65
2021/10/02 04:01:34;;;;;;;12.03;10.47;;;;;;;11.55;100.00;100971.41;2065724;28;20034;-66
2021/10/02 04:02:35;;;;;;;12.47;9.37;;;;;;;11.58;99.92;100965.19;2065665;28;20472;-66
2021/10/02 04:03:35;;;;;;;14.45;10.23;;;;;;;11.58;100.00;100966.06;2065853;28;20018;-65
2021/10/02 04:04:35;;;;;;;14.70;11.27;;;;;;;11.59;99.85;100962.53;2066392;28;20018;-65
2021/10/02 04:05:36;;;;;;;14.07;9.30;;;;;;;11.61;99.81;100964.22;2065538;28;20037;-65
2021/10/02 04:06:36;;;;;;;15.43;10.30;;;;;;;11.60;100.00;100963.34;2065742;28;20027;-65
2021/10/02 04:07:36;;;;;;;13.37;10.57;;;;;;;11.62;99.64;100971.97;2065788;28;20042;-66
2021/10/02 04:08:37;;;;;;;13.93;9.80;;;;;;;11.62;99.75;100963.28;2065768;28;20483;-65
2021/10/02 04:09:37;;;;;;;12.23;10.47;;;;;;;11.63;99.63;100965.00;2065768;28;20133;-66
2021/10/02 04:10:37;;;;;;;17.80;10.90;;;;;;;11.64;99.55;100964.06;2065925;28;20018;-65
2021/10/02 04:11:37;;;;;;;13.40;10.17;;;;;;;11.62;99.99;100960.66;2066515;28;20034;-66
2021/10/02 04:12:38;;;;;;;15.90;10.70;;;;;;;11.61;99.90;100959.84;2066443;28;20467;-65
2021/10/02 04:13:38;;;;;;;17.00;11.03;;;;;;;11.63;99.51;100970.22;2066260;28;20109;-65
2021/10/02 04:14:39;;;;;;;15.63;11.70;;;;;;;11.61;99.76;100966.81;2066454;28;20030;-67
2021/10/02 04:15:39;;;;;;;12.40;10.45;;;;;;;11.58;99.76;100963.44;2066313;28;20149;-67
2021/10/02 04:16:39;;;;;;;18.87;10.50;;;;;;;11.55;99.92;100960.97;2066246;28;20474;-65
2021/10/02 04:17:40;;;;;;;12.03;10.77;;;;;;;11.54;99.51;100961.03;2066337;28;20018;-66
2021/10/02 04:18:40;;;;;;;11.67;9.90;;;;;;;11.52;99.38;100963.72;2066392;28;20018;-66
2021/10/02 04:19:42;;;;;;;12.50;9.60;;;;;;;11.50;99.44;100952.47;2066339;28;20033;-66
2021/10/02 04:20:43;;;;;;;16.50;10.85;;;;;;;11.49;99.42;100956.00;2066389;28;20018;-67
2021/10/02 04:21:43;;;;;;;14.37;10.17;;;;;;;11.51;99.47;100955.94;2066437;28;20022;-66
2021/10/02 04:22:44;;;;;;;13.98;10.05;;;;;;;11.49;99.66;100952.56;2066379;28;20476;-65
2021/10/02 04:23:44;;;;;;;12.40;10.47;;;;;;;11.46;99.37;100956.13;2066265;28;20031;-66
2021/10/02 04:24:44;;;;;;;12.20;10.47;;;;;;;11.40;99.02;100962.47;2066371;28;20026;-67
2021/10/02 04:25:44;;;;;;;14.03;10.00;;;;;;;11.35;99.82;100961.00;2066321;28;20030;-66
2021/10/02 04:26:45;;;;;;;24.30;11.63;;;;;;;11.33;99.56;100961.91;2066526;28;20038;-66
2021/10/02 04:27:45;;;;;;;14.97;10.17;;;;;;;11.32;100.00;100960.22;2066064;28;20066;-66
2021/10/02 04:28:45;;;;;;;14.17;10.97;;;;;;;11.29;99.90;100960.34;2065557;28;20026;-69
2021/10/02 04:29:46;;;;;;;13.27;10.77;;;;;;;11.25;100.00;100958.78;2066391;28;20031;-66
2021/10/02 04:30:46;;;;;;;17.63;11.23;;;;;;;11.26;100.00;100964.84;2066293;28;20061;-66
2021/10/02 04:31:46;;;;;;;14.83;9.60;;;;;;;11.25;99.72;100968.41;2066380;28;20105;-68
2021/10/02 04:32:46;;;;;;;14.17;10.07;;;;;;;11.24;99.59;100970.16;2066321;28;20026;-66
2021/10/02 04:33:46;;;;;;;15.00;11.87;;;;;;;11.22;100.00;100958.91;2066138;28;20038;-66
2021/10/02 04:34:47;;;;;;;12.60;10.13;;;;;;;11.21;100.00;100962.44;2066281;28;20373;-66
2021/10/02 04:35:47;;;;;;;15.57;10.40;;;;;;;11.23;100.00;100965.84;2066247;28;20015;-67
2021/10/02 04:36:48;;;;;;;18.03;10.67;;;;;;;11.22;100.00;100963.28;2066264;28;20512;-67
2021/10/02 04:37:48;;;;;;;13.00;10.07;;;;;;;11.20;100.00;100971.19;2066064;28;20324;-66
2021/10/02 04:38:48;;;;;;;13.43;10.40;;;;;;;11.18;100.00;100959.94;2066216;28;20030;-66
2021/10/02 04:39:49;;;;;;;17.13;11.10;;;;;;;11.18;100.00;100962.56;2066136;28;20038;-67
2021/10/02 04:40:49;;;;;;;13.50;11.07;;;;;;;11.16;100.00;100959.19;2066162;28;20073;-66
2021/10/02 04:41:49;;;;;;;17.60;11.47;;;;;;;11.15;100.00;100963.56;2066126;28;20487;-66
2021/10/02 04:42:49;;;;;;;14.77;10.70;;;;;;;11.15;100.00;100960.09;2066111;28;20488;-67
2021/10/02 04:43:50;;;;;;;17.90;11.60;;;;;;;11.11;100.00;100963.72;2066043;28;20035;-67
2021/10/02 04:44:50;;;;;;;15.07;10.57;;;;;;;11.09;100.00;100958.59;2066210;28;20026;-66
2021/10/02 04:45:50;;;;;;;16.70;10.97;;;;;;;11.08;100.00;100962.97;2066076;28;20033;-66
2021/10/02 04:46:51;;;;;;;16.73;10.87;;;;;;;11.08;100.00;100957.75;2066083;28;20472;-65
2021/10/02 04:47:51;;;;;;;17.50;10.80;;;;;;;11.07;100.00;100956.06;2066030;28;20045;-65
2021/10/02 04:48:52;;;;;;;13.37;10.67;;;;;;;11.05;100.00;100955.25;2066201;28;20372;-65
2021/10/02 04:49:53;;;;;;;14.70;10.88;;;;;;;11.05;100.00;100954.44;2066049;28;20105;-64
2021/10/02 04:50:53;;;;;;;18.90;10.48;;;;;;;11.04;100.00;100956.19;2065482;28;20030;-65
2021/10/02 04:51:54;;;;;;;16.53;10.43;;;;;;;11.00;100.00;100959.84;2065500;28;20373;-66
2021/10/02 04:52:55;;;;;;;15.80;9.80;;;;;;;10.99;100.00;100958.16;2065487;28;20026;-66
2021/10/02 04:53:55;;;;;;;13.80;9.77;;;;;;;11.01;100.00;100963.28;2065467;28;20383;-66
2021/10/02 04:54:56;;;;;;;16.57;9.87;;;;;;;11.00;100.00;100969.41;2066058;28;20133;-66
2021/10/02 04:56:00;;;;;;;11.65;10.27;;;;;;;10.95;100.00;100965.25;2066011;28;20019;-66
2021/10/02 04:57:00;;;;;;;17.27;10.82;;;;;;;10.97;100.00;100970.41;2066075;28;20490;-66
2021/10/02 04:58:00;;;;;;;16.40;12.03;;;;;;;10.97;100.00;100965.19;2066047;28;20118;-66
2021/10/02 04:59:00;;;;;;;14.63;10.20;;;;;;;10.99;100.00;100968.59;2065797;28;20479;-66
2021/10/02 05:00:01;;;;;;;19.17;11.10;;;;;;;10.99;100.00;100968.59;2065450;28;20121;-66
2021/10/02 05:01:03;;;;;;;17.52;10.38;;;;;;;10.97;100.00;100965.19;2065480;28;20137;-66
2021/10/02 05:02:03;;;;;;;19.38;12.85;;;;;;;10.98;100.00;100972.09;2065904;28;20022;-65
2021/10/02 05:03:03;;;;;;;17.33;11.57;;;;;;;10.99;100.00;100960.75;2065931;28;20040;-65
2021/10/02 05:04:05;;;;;;;13.77;10.40;;;;;;;10.97;100.00;100962.56;2066726;28;20018;-65
2021/10/02 05:05:05;;;;;;;15.68;9.85;;;;;;;11.02;100.00;100962.38;2066093;28;20034;-67
2021/10/02 05:06:06;;;;;;;19.03;10.47;;;;;;;11.03;100.00;100970.16;2066057;28;20518;-65
2021/10/02 05:07:07;;;;;;;;;;;;;;;11.01;100.00;100966.75;2066406;28;20025;-65
2021/10/02 05:08:07;;;;;;;18.60;11.38;;;;;;;10.98;100.00;100966.03;2065250;28;19964;-66
2021/10/02 05:09:07;;;;;;;16.83;9.83;;;;;;;10.94;100.00;100962.69;2065401;28;20368;-65
2021/10/02 05:10:08;;;;;;;14.27;10.20;;;;;;;10.92;100.00;100962.75;2065411;28;20090;-65
2021/10/02 05:11:08;;;;;;;18.15;9.85;;;;;;;10.90;100.00;100966.34;2065903;28;20032;-65
2021/10/02 05:12:10;;;;;;;13.07;10.03;;;;;;;10.89;100.00;100967.28;2065951;28;20037;-66
2021/10/02 05:13:10;;;;;;;;;;;;;;;10.88;100.00;100962.97;2066364;28;20058;-65
2021/10/02 05:14:10;;;;;;;12.75;8.75;;;;;;;10.88;100.00;100962.97;2065922;28;20276;-65
2021/10/02 05:15:11;;;;;;;22.23;11.70;;;;;;;10.89;100.00;100964.66;2065935;28;20034;-65
2021/10/02 05:16:11;;;;;;;18.50;9.70;;;;;;;10.91;100.00;100962.81;2065233;28;20023;-65
2021/10/02 05:17:13;;;;;;;15.18;9.95;;;;;;;10.91;100.00;100966.28;2065251;28;20476;-65
2021/10/02 05:18:14;;;;;;;17.80;10.60;;;;;;;10.91;100.00;100965.44;2065760;28;20033;-67
2021/10/02 05:19:14;;;;;;;13.47;10.83;;;;;;;10.88;100.00;100961.19;2065801;28;20493;-65
2021/10/02 05:20:14;;;;;;;13.77;10.10;;;;;;;10.89;100.00;100962.06;2065832;28;20046;-65
2021/10/02 05:21:15;;;;;;;15.73;11.07;;;;;;;10.90;100.00;100963.75;2065932;28;20484;-66
2021/10/02 05:22:15;;;;;;;15.57;10.47;;;;;;;10.90;100.00;100964.59;2065835;28;20105;-66
2021/10/02 05:23:15;;;;;;;20.60;11.67;;;;;;;10.90;100.00;100966.34;2065840;28;20105;-66
2021/10/02 05:24:16;;;;;;;13.73;10.15;;;;;;;10.89;100.00;100967.28;2065700;28;20088;-66
2021/10/02 05:25:16;;;;;;;16.10;10.27;;;;;;;10.88;100.00;100966.41;2065937;28;20101;-66
2021/10/02 05:26:16;;;;;;;18.10;11.20;;;;;;;10.89;100.00;100962.91;2065731;28;20030;-66
2021/10/02 05:27:17;;;;;;;18.17;10.20;;;;;;;10.87;100.00;100974.31;2064875;28;20028;-67
2021/10/02 05:28:17;;;;;;;13.90;9.70;;;;;;;10.87;100.00;100969.09;2065046;28;20081;-65
2021/10/02 05:29:17;;;;;;;17.03;10.07;;;;;;;10.85;100.00;100965.69;2065595;28;20061;-66
2021/10/02 05:30:17;;;;;;;15.30;10.73;;;;;;;10.83;100.00;100968.38;2064957;28;20038;-66
2021/10/02 05:31:18;;;;;;;13.60;9.77;;;;;;;10.81;100.00;100965.81;2065216;28;20088;-65
2021/10/02 05:32:18;;;;;;;17.67;11.70;;;;;;;10.81;100.00;100963.22;2065685;28;20495;-66
2021/10/02 05:33:19;;;;;;;16.47;10.60;;;;;;;10.80;100.00;100963.28;2065726;28;20034;-66
2021/10/02 05:34:19;;;;;;;14.57;10.07;;;;;;;10.82;100.00;100971.91;2065750;28;20022;-65
2021/10/02 05:35:20;;;;;;;14.83;10.90;;;;;;;10.82;100.00;100972.72;2065661;28;20030;-66
2021/10/02 05:36:20;;;;;;;17.25;10.15;;;;;;;10.87;100.00;100969.94;2065492;28;20026;-65
2021/10/02 05:37:20;;;;;;;18.27;11.27;;;;;;;10.89;100.00;100970.75;2065521;28;20068;-65
2021/10/02 05:38:21;;;;;;;15.40;9.10;;;;;;;10.90;100.00;100969.81;2065305;28;20057;-66
2021/10/02 05:39:21;;;;;;;15.87;9.37;;;;;;;10.92;100.00;100967.97;2065128;28;20718;-66
2021/10/02 05:40:21;;;;;;;13.57;10.03;;;;;;;10.94;100.00;100970.53;2065490;28;20018;-66
2021/10/02 05:41:22;;;;;;;17.23;9.87;;;;;;;10.94;100.00;100970.53;2065524;28;20022;-67